createdAt,value
2022-08-05T00:02:07.689Z,8.25
2022-08-05T00:04:38.277Z,8.25
2022-08-05T00:07:26.753Z,8.00
2022-08-05T00:09:54.539Z,8.25
2022-08-05T00:12:21.643Z,8.25
2022-08-05T00:14:51.759Z,8.75
2022-08-05T00:17:20.195Z,8.75
2022-08-05T00:20:02.489Z,9.50
2022-08-05T00:22:29.885Z,11.00
2022-08-05T00:24:57.933Z,8.50
2022-08-05T00:27:35.780Z,8.00
2022-08-05T00:30:05.025Z,7.00
2022-08-05T00:32:38.124Z,10.00
2022-08-05T00:35:07.885Z,9.00
2022-08-05T00:37:50.482Z,10.25
2022-08-05T00:40:27.345Z,8.25
2022-08-05T00:43:02.129Z,8.50
2022-08-05T00:45:38.511Z,8.75
2022-08-05T00:48:10.134Z,10.00
2022-08-05T00:50:37.765Z,10.25
2022-08-05T00:53:09.865Z,9.25
2022-08-05T00:55:51.337Z,9.25
2022-08-05T00:58:19.262Z,8.00
2022-08-05T01:00:47.750Z,7.50
2022-08-05T01:03:22.954Z,8.75
2022-08-05T01:05:51.427Z,6.25
2022-08-05T01:08:40.147Z,8.00
2022-08-05T01:11:33.642Z,9.75
2022-08-05T01:14:15.467Z,8.75
2022-08-05T01:17:00.141Z,7.50
2022-08-05T01:20:01.614Z,6.75
2022-08-05T01:22:48.656Z,7.00
2022-08-05T01:25:53.488Z,8.75
2022-08-05T01:28:42.862Z,9.25
2022-08-05T01:31:15.352Z,8.00
2022-08-05T01:34:17.765Z,8.75
2022-08-05T01:36:49.512Z,9.25
2022-08-05T01:39:47.120Z,6.25
2022-08-05T01:42:07.253Z,7.75
2022-08-05T01:44:37.978Z,6.00
2022-08-05T01:47:05.183Z,5.50
2022-08-05T01:50:00.428Z,5.25
2022-08-05T01:52:23.998Z,6.75
2022-08-05T01:54:56.240Z,6.50
2022-08-05T01:58:10.723Z,5.00
2022-08-05T02:00:19.758Z,5.50
2022-08-05T02:02:55.248Z,7.00
2022-08-05T02:05:28.533Z,7.00
2022-08-05T02:08:01.342Z,7.00
2022-08-05T02:10:34.896Z,7.00
2022-08-05T02:13:22.565Z,4.75
2022-08-05T02:16:05.946Z,8.00
2022-08-05T02:18:43.478Z,6.25
2022-08-05T02:21:15.387Z,6.25
2022-08-05T02:23:46.019Z,5.25
2022-08-05T02:26:17.091Z,5.00
2022-08-05T02:28:46.062Z,6.00
2022-08-05T02:31:21.044Z,5.00
2022-08-05T02:33:57.629Z,4.25
2022-08-05T02:36:31.353Z,6.25
2022-08-05T02:39:00.509Z,5.00
2022-08-05T02:41:43.305Z,5.00
2022-08-05T02:44:16.764Z,4.50
2022-08-05T02:46:58.323Z,5.00
2022-08-05T02:49:36.559Z,4.50
2022-08-05T02:52:07.580Z,5.00
2022-08-05T02:54:37.219Z,5.25
2022-08-05T02:58:11.080Z,5.25
2022-08-05T02:59:57.670Z,5.00
2022-08-05T03:02:34.351Z,7.00
2022-08-05T03:05:02.062Z,6.50
2022-08-05T03:08:01.429Z,5.00
2022-08-05T03:10:22.062Z,6.00
2022-08-05T03:12:52.563Z,5.25
2022-08-05T03:15:20.882Z,7.00
2022-08-05T03:17:50.581Z,6.00
2022-08-05T03:20:20.954Z,5.00
2022-08-05T03:22:50.188Z,4.75
2022-08-05T03:25:32.552Z,6.00
2022-08-05T03:28:08.792Z,5.50
2022-08-05T03:30:38.290Z,3.75
2022-08-05T03:33:08.214Z,6.00
2022-08-05T03:35:40.774Z,6.25
2022-08-05T03:38:11.977Z,5.25
2022-08-05T03:40:48.428Z,6.25
2022-08-05T03:44:08.533Z,5.50
2022-08-05T03:46:04.509Z,6.50
2022-08-05T03:48:35.415Z,7.25
2022-08-05T03:52:36.556Z,8.00
2022-08-05T03:55:06.751Z,8.00
2022-08-05T03:57:16.589Z,6.25
2022-08-05T03:59:55.518Z,9.25
2022-08-05T04:02:38.577Z,7.25
2022-08-05T04:05:13.106Z,8.00
2022-08-05T04:07:58.042Z,8.00
2022-08-05T04:10:27.724Z,9.50
2022-08-05T04:12:58.896Z,7.00
2022-08-05T04:15:27.953Z,7.50
2022-08-05T04:18:04.021Z,9.00
2022-08-05T04:20:34.296Z,8.00
2022-08-05T04:23:01.114Z,8.75
2022-08-05T04:25:57.403Z,8.00
2022-08-05T04:28:14.964Z,8.25
2022-08-05T04:30:42.885Z,10.00
2022-08-05T04:33:09.862Z,9.00
2022-08-05T04:36:11.128Z,8.50
2022-08-05T04:38:39.714Z,8.50
2022-08-05T04:41:07.524Z,9.25
2022-08-05T04:43:37.154Z,9.25
2022-08-05T04:46:05.144Z,8.75
2022-08-05T04:48:32.296Z,11.25
2022-08-05T04:51:02.566Z,7.75
2022-08-05T04:53:33.525Z,9.50
2022-08-05T04:56:33.364Z,8.25
2022-08-05T04:58:49.341Z,9.00
2022-08-05T05:01:16.121Z,9.50
2022-08-05T05:04:02.830Z,9.25
2022-08-05T05:06:39.759Z,9.00
2022-08-05T05:09:14.251Z,8.50
2022-08-05T05:11:53.132Z,10.00
2022-08-05T05:14:31.485Z,8.00
2022-08-05T05:17:00.712Z,8.75
2022-08-05T05:19:37.301Z,8.25
2022-08-05T05:22:24.688Z,8.50
2022-08-05T05:24:57.634Z,8.50
2022-08-05T05:27:45.767Z,7.00
2022-08-05T05:30:29.411Z,10.00
2022-08-05T05:33:00.802Z,8.00
2022-08-05T05:35:34.207Z,10.50
2022-08-05T05:38:05.517Z,8.50
2022-08-05T05:40:33.027Z,8.25
2022-08-05T05:43:02.084Z,7.25
2022-08-05T05:45:29.218Z,9.25
2022-08-05T05:48:06.129Z,9.75
2022-08-05T05:50:44.147Z,8.50
2022-08-05T05:53:22.395Z,7.50
2022-08-05T05:56:00.465Z,6.50
2022-08-05T05:58:31.660Z,9.00
2022-08-05T06:01:02.526Z,8.00
2022-08-05T06:04:00.463Z,10.25
2022-08-05T06:06:28.085Z,8.75
2022-08-05T06:08:59.425Z,10.00
2022-08-05T06:11:26.216Z,8.00
2022-08-05T06:13:56.299Z,9.50
2022-08-05T06:16:30.384Z,10.50
2022-08-05T06:19:00.960Z,9.00
2022-08-05T06:21:37.037Z,7.75
2022-08-05T06:24:11.506Z,8.00
2022-08-05T06:26:51.643Z,9.50
2022-08-05T06:29:25.306Z,9.25
2022-08-05T06:32:24.823Z,9.25
2022-08-05T06:34:53.537Z,9.50
2022-08-05T06:37:52.249Z,10.00
2022-08-05T06:40:09.936Z,9.25
2022-08-05T06:42:37.089Z,8.75
2022-08-05T06:45:09.357Z,10.25
2022-08-05T06:48:47.116Z,7.25
2022-08-05T06:50:25.018Z,10.75
2022-08-05T06:52:58.631Z,9.00
2022-08-05T06:55:36.483Z,9.25
2022-08-05T06:58:29.035Z,9.75
2022-08-05T07:00:51.524Z,9.75
2022-08-05T07:03:18.421Z,8.75
2022-08-05T07:05:46.424Z,9.75
2022-08-05T07:08:13.719Z,8.50
2022-08-05T07:10:52.770Z,9.50
2022-08-05T07:13:57.968Z,10.25
2022-08-05T07:18:02.275Z,11.00
2022-08-05T07:20:23.040Z,10.75
2022-08-05T07:22:28.154Z,10.00
2022-08-05T07:25:22.111Z,9.75
2022-08-05T07:27:58.206Z,11.75
2022-08-05T07:30:32.526Z,11.50
2022-08-05T07:33:01.451Z,10.00
2022-08-05T07:36:01.554Z,11.00
2022-08-05T07:38:32.321Z,9.75
2022-08-05T07:42:07.063Z,10.50
2022-08-05T07:43:57.962Z,9.00
2022-08-05T07:46:29.521Z,8.25
2022-08-05T07:49:01.772Z,10.00
2022-08-05T07:51:37.195Z,9.25
2022-08-05T07:54:08.515Z,7.75
2022-08-05T07:57:02.739Z,9.50
2022-08-05T07:59:38.608Z,8.00
2022-08-05T08:02:16.041Z,8.75
2022-08-05T08:04:45.511Z,10.00
2022-08-05T08:07:13.150Z,11.25
2022-08-05T08:09:39.870Z,9.75
2022-08-05T08:12:17.182Z,11.00
2022-08-05T08:14:53.886Z,9.25
2022-08-05T08:17:21.299Z,9.50
2022-08-05T08:20:21.080Z,9.00
2022-08-05T08:22:35.239Z,7.50
2022-08-05T08:25:03.479Z,8.00
2022-08-05T08:27:40.049Z,7.00
2022-08-05T08:30:19.078Z,7.00
2022-08-05T08:32:54.410Z,7.00
2022-08-05T08:35:21.178Z,9.00
2022-08-05T08:37:54.443Z,9.00
2022-08-05T08:40:23.917Z,8.50
2022-08-05T08:42:53.108Z,7.25
2022-08-05T08:45:27.150Z,8.00
2022-08-05T08:48:13.054Z,6.25
2022-08-05T08:51:03.251Z,10.25
2022-08-05T08:53:37.899Z,6.75
2022-08-05T08:56:11.095Z,7.75
2022-08-05T08:58:44.704Z,7.25
2022-08-05T09:01:17.398Z,10.50
2022-08-05T09:03:54.602Z,8.75
2022-08-05T09:06:28.177Z,7.25
2022-08-05T09:08:58.967Z,7.00
2022-08-05T09:11:50.388Z,7.50
2022-08-05T09:14:58.677Z,8.50
2022-08-05T09:17:00.943Z,8.25
2022-08-05T09:19:36.311Z,8.75
2022-08-05T09:22:22.446Z,8.00
2022-08-05T09:25:23.848Z,8.00
2022-08-05T09:28:05.625Z,8.00
2022-08-05T09:30:34.812Z,7.25
2022-08-05T09:33:02.749Z,8.00
2022-08-05T09:35:31.513Z,8.75
2022-08-05T09:38:12.539Z,10.00
2022-08-05T09:40:52.005Z,7.00
2022-08-05T09:43:41.766Z,8.00
2022-08-05T09:46:33.620Z,8.50
2022-08-05T09:49:19.606Z,8.50
2022-08-05T09:51:49.372Z,7.75
2022-08-05T09:54:28.817Z,8.75
2022-08-05T09:56:57.582Z,8.00
2022-08-05T09:59:27.678Z,9.25
2022-08-05T10:01:57.863Z,8.75
2022-08-05T10:04:36.338Z,10.00
2022-08-05T10:07:19.746Z,7.50
2022-08-05T10:10:04.064Z,8.50
2022-08-05T10:12:51.060Z,6.75
2022-08-05T10:15:22.585Z,7.25
2022-08-05T10:18:10.027Z,7.75
2022-08-05T10:20:52.205Z,6.25
2022-08-05T10:23:55.971Z,8.50
2022-08-05T10:26:16.275Z,7.00
2022-08-05T10:28:45.039Z,5.25
2022-08-05T10:32:47.787Z,6.00
2022-08-05T10:34:02.410Z,3.50
2022-08-05T10:36:29.965Z,4.00
2022-08-05T10:39:10.301Z,4.00
2022-08-05T10:42:11.827Z,4.25
2022-08-05T10:44:39.453Z,8.75
2022-08-05T10:47:25.974Z,5.00
2022-08-05T10:50:31.873Z,3.00
2022-08-05T10:53:00.334Z,4.00
2022-08-05T10:55:27.587Z,5.00
2022-08-05T10:58:08.831Z,5.00
2022-08-05T11:00:35.839Z,4.25
2022-08-05T11:03:24.233Z,4.00
2022-08-05T11:06:15.213Z,4.00
2022-08-05T11:09:32.249Z,4.00
2022-08-05T11:12:26.848Z,4.00
2022-08-05T11:15:19.170Z,6.25
2022-08-05T11:17:57.615Z,4.75
2022-08-05T11:20:41.639Z,4.00
2022-08-05T11:23:33.351Z,4.00
2022-08-05T11:26:31.849Z,4.00
2022-08-05T11:29:11.897Z,3.25
2022-08-05T11:31:58.503Z,4.00
2022-08-05T11:34:51.144Z,4.50
2022-08-05T11:38:30.516Z,4.50
2022-08-05T11:41:01.007Z,4.50
2022-08-05T11:44:01.106Z,3.75
2022-08-05T11:46:32.808Z,4.00
2022-08-05T11:49:01.605Z,4.00
2022-08-05T11:51:44.725Z,4.50
2022-08-05T11:54:33.705Z,3.50
2022-08-05T11:57:08.534Z,3.25
2022-08-05T11:59:50.292Z,3.25
2022-08-05T12:02:29.800Z,3.00
2022-08-05T12:05:07.896Z,3.00
2022-08-05T12:08:08.385Z,4.00
2022-08-05T12:10:43.550Z,4.50
2022-08-05T12:13:16.712Z,3.00
2022-08-05T12:15:49.955Z,4.00
2022-08-05T12:18:20.764Z,3.00
2022-08-05T12:20:51.003Z,3.00
2022-08-05T12:23:18.035Z,4.25
2022-08-05T12:25:56.994Z,2.25
2022-08-05T12:28:50.206Z,3.75
2022-08-05T12:31:28.050Z,3.00
2022-08-05T12:34:07.220Z,3.50
2022-08-05T12:36:35.730Z,3.50
2022-08-05T12:39:05.448Z,4.50
2022-08-05T12:41:34.958Z,3.50
2022-08-05T12:44:14.204Z,4.00
2022-08-05T12:46:53.883Z,4.00
2022-08-05T12:49:20.705Z,3.00
2022-08-05T12:52:12.081Z,3.50
2022-08-05T12:54:51.179Z,3.25
2022-08-05T12:57:19.749Z,4.00
2022-08-05T13:01:57.149Z,3.50
2022-08-05T13:02:41.869Z,4.00
2022-08-05T13:05:11.198Z,3.75
2022-08-05T13:07:59.944Z,4.00
2022-08-05T13:10:28.626Z,3.50
2022-08-05T13:12:58.003Z,4.00
2022-08-05T13:15:35.939Z,3.50
2022-08-05T13:18:09.044Z,4.00
2022-08-05T13:20:40.540Z,4.00
2022-08-05T13:23:07.633Z,3.50
2022-08-05T13:25:52.343Z,2.50
2022-08-05T13:28:22.273Z,2.75
2022-08-05T13:30:51.207Z,3.75
2022-08-05T13:34:21.583Z,3.00
2022-08-05T13:36:09.239Z,4.00
2022-08-05T13:38:40.914Z,3.50
2022-08-05T13:41:09.602Z,3.75
2022-08-05T13:43:45.891Z,4.00
2022-08-05T13:49:12.769Z,4.00
2022-08-05T13:51:46.035Z,4.50
2022-08-05T13:54:15.906Z,3.00
2022-08-05T13:56:44.909Z,3.50
2022-08-05T13:59:20.245Z,2.75
2022-08-05T14:01:59.202Z,3.00
2022-08-05T14:04:55.639Z,3.25
2022-08-05T14:07:26.304Z,3.00
2022-08-05T14:10:19.207Z,4.00
2022-08-05T14:12:55.323Z,3.00
2022-08-05T14:16:05.117Z,3.00
2022-08-05T14:18:15.262Z,2.00
2022-08-05T14:20:47.339Z,3.00
2022-08-05T14:23:23.335Z,2.00
2022-08-05T14:25:58.205Z,2.75
2022-08-05T14:28:29.807Z,3.75
2022-08-05T14:31:00.890Z,2.50
2022-08-05T14:33:56.353Z,2.00
2022-08-05T14:36:15.221Z,3.75
2022-08-05T14:38:41.861Z,2.75
2022-08-05T14:41:08.622Z,3.25
2022-08-05T14:44:01.781Z,3.00
2022-08-05T14:46:28.794Z,3.75
2022-08-05T14:48:56.848Z,3.00
2022-08-05T14:51:24.201Z,3.00
2022-08-05T14:54:28.681Z,3.50
2022-08-05T14:56:44.257Z,2.75
2022-08-05T14:59:13.372Z,3.00
2022-08-05T15:01:48.055Z,3.25
2022-08-05T15:04:16.881Z,3.00
2022-08-05T15:06:49.508Z,4.00
2022-08-05T15:09:51.890Z,4.00
2022-08-05T15:12:08.897Z,3.25
2022-08-05T15:14:48.322Z,4.00
2022-08-05T15:17:46.984Z,3.00
2022-08-05T15:20:06.016Z,3.00
2022-08-05T15:22:32.903Z,4.00
2022-08-05T15:25:00.340Z,3.00
2022-08-05T15:27:42.974Z,3.75
2022-08-05T15:30:19.382Z,4.00
2022-08-05T15:32:46.464Z,3.25
2022-08-05T15:35:13.180Z,4.25
2022-08-05T15:38:32.815Z,4.75
2022-08-05T15:41:02.956Z,3.50
2022-08-05T15:43:20.416Z,3.50
2022-08-05T15:45:59.748Z,3.75
2022-08-05T15:48:26.637Z,3.25
2022-08-05T15:50:53.422Z,4.25
2022-08-05T15:53:22.948Z,4.50
2022-08-05T15:56:02.961Z,3.00
2022-08-05T15:58:35.413Z,3.25
2022-08-05T16:01:17.031Z,4.25
2022-08-05T16:03:50.310Z,4.00
2022-08-05T16:06:19.993Z,5.00
2022-08-05T16:08:47.410Z,3.75
2022-08-05T16:11:14.280Z,3.50
2022-08-05T16:13:41.802Z,2.50
2022-08-05T16:16:10.662Z,3.00
2022-08-05T16:18:51.664Z,4.00
2022-08-05T16:21:18.772Z,2.25
2022-08-05T16:23:53.234Z,4.00
2022-08-05T16:26:26.425Z,4.75
2022-08-05T16:28:54.518Z,3.25
2022-08-05T16:31:22.184Z,2.75
2022-08-05T16:33:49.492Z,4.25
2022-08-05T16:36:20.526Z,5.00
2022-08-05T16:38:54.422Z,4.00
2022-08-05T16:42:13.872Z,3.00
2022-08-05T16:44:09.882Z,4.00
2022-08-05T16:46:38.732Z,3.00
2022-08-05T16:49:09.954Z,4.25
2022-08-05T16:51:42.653Z,4.25
2022-08-05T16:54:23.960Z,5.00
2022-08-05T16:56:57.628Z,4.00
2022-08-05T16:59:24.702Z,5.00
2022-08-05T17:01:56.218Z,5.25
2022-08-05T17:04:28.117Z,6.00
2022-08-05T17:07:00.084Z,4.50
2022-08-05T17:09:29.530Z,5.00
2022-08-05T17:11:59.663Z,4.75
2022-08-05T17:14:37.407Z,4.50
2022-08-05T17:17:09.474Z,5.50
2022-08-05T17:19:43.866Z,5.75
2022-08-05T17:22:24.460Z,5.50
2022-08-05T17:24:57.942Z,4.75
2022-08-05T17:27:26.398Z,6.00
2022-08-05T17:30:00.551Z,5.75
2022-08-05T17:32:29.285Z,6.00
2022-08-05T17:34:58.216Z,6.75
2022-08-05T17:37:39.440Z,4.50
2022-08-05T17:40:12.776Z,7.00
2022-08-05T17:42:46.429Z,5.25
2022-08-05T17:45:23.068Z,6.00
2022-08-05T17:47:55.782Z,5.75
2022-08-05T17:50:30.479Z,3.00
2022-08-05T17:53:05.186Z,5.75
2022-08-05T17:55:37.235Z,4.00
2022-08-05T17:58:12.946Z,4.75
2022-08-05T18:00:45.058Z,5.75
2022-08-05T18:06:06.153Z,4.50
2022-08-05T18:08:44.185Z,6.00
2022-08-05T18:11:24.052Z,5.00
2022-08-05T18:14:00.453Z,6.25
2022-08-05T18:16:30.302Z,6.50
2022-08-05T18:18:57.343Z,4.00
2022-08-05T18:21:26.470Z,6.50
2022-08-05T18:24:12.520Z,4.75
2022-08-05T18:26:40.996Z,5.75
2022-08-05T18:29:10.400Z,5.50
2022-08-05T18:31:37.176Z,6.00
2022-08-05T18:34:12.125Z,3.00
2022-08-05T18:36:39.615Z,5.25
2022-08-05T18:39:22.298Z,5.00
2022-08-05T18:42:03.697Z,6.25
2022-08-05T18:44:35.480Z,6.00
2022-08-05T18:47:15.798Z,6.00
2022-08-05T18:50:01.197Z,4.00
2022-08-05T18:52:33.657Z,7.00
2022-08-05T18:55:05.715Z,5.50
2022-08-05T18:57:42.979Z,5.25
2022-08-05T19:00:20.021Z,7.00
2022-08-05T19:02:47.593Z,6.25
2022-08-05T19:06:11.758Z,7.00
2022-08-05T19:08:02.823Z,9.00
2022-08-05T19:10:30.665Z,8.25
2022-08-05T19:12:58.299Z,9.75
2022-08-05T19:15:57.909Z,8.25
2022-08-05T19:18:22.285Z,8.00
2022-08-05T19:20:52.368Z,5.00
2022-08-05T19:24:03.588Z,7.25
2022-08-05T19:26:08.494Z,7.75
2022-08-05T19:28:42.073Z,6.50
2022-08-05T19:31:13.196Z,7.50
2022-08-05T19:33:48.734Z,5.25
2022-08-05T19:36:23.399Z,6.00
2022-08-05T19:38:50.074Z,6.25
2022-08-05T19:41:16.741Z,6.00
2022-08-05T19:44:05.445Z,5.50
2022-08-05T19:46:37.856Z,5.75
2022-08-05T19:49:07.413Z,5.75
2022-08-05T19:52:05.975Z,6.25
2022-08-05T19:54:29.440Z,6.25
2022-08-05T19:57:06.732Z,6.25
2022-08-05T19:59:59.629Z,6.00
2022-08-05T20:02:26.174Z,5.00
2022-08-05T20:04:54.891Z,5.50
2022-08-05T20:07:46.538Z,6.75
2022-08-05T20:10:13.374Z,7.00
2022-08-05T20:12:46.163Z,5.75
2022-08-05T20:15:48.503Z,7.25
2022-08-05T20:18:09.602Z,6.75
2022-08-05T20:20:38.198Z,7.25
2022-08-05T20:23:05.461Z,7.75
2022-08-05T20:25:39.961Z,8.25
2022-08-05T20:28:08.305Z,9.75
2022-08-05T20:30:41.310Z,8.50
2022-08-05T20:33:08.792Z,8.50
2022-08-05T20:35:40.488Z,9.00
2022-08-05T20:38:14.414Z,9.75
2022-08-05T20:40:50.436Z,7.75
2022-08-05T20:43:17.648Z,5.25
2022-08-05T20:46:04.408Z,4.25
2022-08-05T20:48:31.052Z,5.00
2022-08-05T20:50:57.700Z,5.00
2022-08-05T20:53:36.465Z,5.00
2022-08-05T20:56:08.657Z,3.25
2022-08-05T20:58:36.071Z,4.00
2022-08-05T21:01:04.536Z,3.25
2022-08-05T21:03:34.168Z,3.00
2022-08-05T21:06:02.033Z,4.00
2022-08-05T21:08:41.930Z,4.00
2022-08-05T21:11:12.692Z,3.50
2022-08-05T21:13:56.501Z,4.00
2022-08-05T21:16:30.109Z,5.25
2022-08-05T21:19:01.720Z,4.00
2022-08-05T21:21:39.569Z,3.25
2022-08-05T21:24:12.819Z,4.00
2022-08-05T21:26:41.435Z,4.00
2022-08-05T21:29:09.975Z,3.25
2022-08-05T21:31:41.110Z,3.75
2022-08-05T21:34:08.522Z,4.00
2022-08-05T21:36:37.501Z,3.25
2022-08-05T21:39:04.343Z,4.00
2022-08-05T21:41:33.960Z,4.00
2022-08-05T21:44:03.811Z,5.00
2022-08-05T21:46:34.940Z,6.00
2022-08-05T21:49:07.418Z,4.00
2022-08-05T21:52:22.028Z,5.00
2022-08-05T21:54:27.886Z,5.00
2022-08-05T21:57:04.854Z,5.00
2022-08-05T22:00:03.021Z,4.75
2022-08-05T22:02:28.272Z,5.00
2022-08-05T22:04:58.291Z,5.00
2022-08-05T22:07:54.251Z,6.00
2022-08-05T22:10:12.924Z,6.00
2022-08-05T22:12:44.727Z,6.00
2022-08-05T22:15:56.494Z,5.25
2022-08-05T22:18:04.693Z,4.75
2022-08-05T22:20:31.624Z,6.00
2022-08-05T22:23:21.220Z,4.75
2022-08-05T22:26:09.905Z,5.25
2022-08-05T22:28:37.591Z,5.50
2022-08-05T22:31:06.008Z,6.50
2022-08-05T22:33:57.323Z,5.50
2022-08-05T22:36:24.022Z,5.75
2022-08-05T22:38:51.524Z,4.75
2022-08-05T22:42:05.513Z,5.75
2022-08-05T22:44:08.938Z,5.00
2022-08-05T22:46:40.215Z,3.75
2022-08-05T22:49:23.359Z,7.25
2022-08-05T22:52:05.908Z,4.50
2022-08-05T22:54:37.690Z,6.00
2022-08-05T22:57:06.450Z,5.00
2022-08-05T22:59:43.749Z,6.00
2022-08-05T23:02:16.822Z,5.00
2022-08-05T23:04:51.410Z,6.00
2022-08-05T23:07:19.688Z,6.00
2022-08-05T23:09:57.610Z,4.00
2022-08-05T23:12:28.987Z,6.00
2022-08-05T23:15:01.333Z,4.25
2022-08-05T23:17:34.300Z,4.75
2022-08-05T23:20:16.561Z,5.00
2022-08-05T23:22:48.499Z,4.75
2022-08-05T23:25:51.408Z,6.25
2022-08-05T23:28:06.754Z,5.00
2022-08-05T23:30:40.393Z,5.00
2022-08-05T23:33:16.148Z,5.25
2022-08-05T23:35:49.143Z,5.00
2022-08-05T23:38:16.294Z,5.00
2022-08-05T23:40:49.801Z,5.00
2022-08-05T23:43:25.499Z,5.25
2022-08-05T23:46:03.983Z,4.50
2022-08-05T23:48:30.646Z,4.00
2022-08-05T23:50:57.280Z,6.00
2022-08-05T23:53:46.156Z,5.50
2022-08-05T23:56:12.171Z,6.00
2022-08-05T23:58:39.861Z,4.00
